createdAt,value
2022-12-06T00:01:51.709Z,171.13
2022-12-06T00:11:54.190Z,157.38
2022-12-06T00:21:56.119Z,187.15
2022-12-06T00:31:57.988Z,183.45
2022-12-06T00:41:59.925Z,155.77
2022-12-06T00:52:01.758Z,126.72
2022-12-06T01:02:03.616Z,112.05
2022-12-06T01:12:05.602Z,128.75
2022-12-06T01:22:07.413Z,111.10
2022-12-06T01:32:09.512Z,123.47
2022-12-06T01:42:15.488Z,104.75
2022-12-06T01:52:18.810Z,88.93
2022-12-06T02:02:20.967Z,108.25
2022-12-06T02:12:22.942Z,94.28
2022-12-06T02:22:50.220Z,117.05
2022-12-06T02:32:59.859Z,130.82
2022-12-06T02:43:11.070Z,153.98
2022-12-06T02:53:17.845Z,138.90
2022-12-06T03:03:59.616Z,141.63
2022-12-06T03:14:13.383Z,138.73
2022-12-06T03:24:17.324Z,122.10
2022-12-06T03:34:25.569Z,108.20
2022-12-06T03:44:27.403Z,100.60
2022-12-06T03:54:29.406Z,112.03
2022-12-06T04:04:31.286Z,109.20
2022-12-06T04:14:33.137Z,115.93
2022-12-06T04:24:34.990Z,98.70
2022-12-06T04:34:36.839Z,83.32
2022-12-06T04:44:39.390Z,68.60
2022-12-06T04:54:41.349Z,94.82
2022-12-06T05:04:43.429Z,75.22
2022-12-06T05:14:45.295Z,76.45
2022-12-06T05:24:47.139Z,80.40
2022-12-06T05:34:49.122Z,72.72
2022-12-06T05:44:50.936Z,77.03
2022-12-06T05:54:52.695Z,75.95
2022-12-06T06:04:54.506Z,67.88
2022-12-06T06:14:56.394Z,89.13
2022-12-06T06:24:58.439Z,81.63
2022-12-06T06:35:00.438Z,80.88
2022-12-06T06:45:03.988Z,71.07
2022-12-06T06:55:06.575Z,90.30
2022-12-06T07:05:08.501Z,84.25
2022-12-06T07:15:10.967Z,89.43
2022-12-06T07:25:12.840Z,122.55
2022-12-06T07:35:14.744Z,109.22
2022-12-06T07:45:16.668Z,108.43
2022-12-06T07:55:19.146Z,109.93
2022-12-06T08:05:20.921Z,129.98
2022-12-06T08:15:22.787Z,128.45
2022-12-06T08:25:24.789Z,113.22
2022-12-06T08:35:26.655Z,111.70
2022-12-06T08:45:28.511Z,119.55
2022-12-06T08:55:30.333Z,87.35
2022-12-06T09:05:35.057Z,94.60
2022-12-06T09:15:38.499Z,47.65
2022-12-06T09:25:43.542Z,24.35
2022-12-06T09:35:45.495Z,10.73
2022-12-06T09:45:52.874Z,12.60
2022-12-06T09:56:20.437Z,13.48
2022-12-06T10:06:24.890Z,16.95
2022-12-06T10:16:33.206Z,17.40
2022-12-06T10:26:51.412Z,27.13
2022-12-06T10:37:17.258Z,28.85
2022-12-06T10:47:30.409Z,30.80
2022-12-06T10:57:36.890Z,29.30
2022-12-06T11:07:43.373Z,32.28
2022-12-06T11:17:49.165Z,23.55
2022-12-06T11:28:09.061Z,27.00
2022-12-06T11:38:12.742Z,23.92
2022-12-06T11:48:18.985Z,32.50
2022-12-06T11:58:40.247Z,32.90
2022-12-06T12:08:52.184Z,33.38
2022-12-06T12:18:55.916Z,28.48
2022-12-06T12:29:18.592Z,14.93
2022-12-06T12:39:37.281Z,18.30
2022-12-06T12:49:39.147Z,21.50
2022-12-06T12:59:41.813Z,11.73
2022-12-06T13:10:07.220Z,14.52
2022-12-06T13:20:27.456Z,19.10
2022-12-06T13:30:31.299Z,12.52
2022-12-06T13:40:33.257Z,14.27
2022-12-06T13:50:35.006Z,15.32
2022-12-06T14:00:42.635Z,15.07
2022-12-06T14:10:44.796Z,15.85
2022-12-06T14:20:49.263Z,14.88
2022-12-06T14:31:03.666Z,17.48
2022-12-06T14:41:05.672Z,20.25
2022-12-06T14:51:38.292Z,9.23
2022-12-06T15:01:49.787Z,20.83
2022-12-06T15:11:52.160Z,25.42
2022-12-06T15:21:54.819Z,29.35
2022-12-06T15:31:56.706Z,38.88
2022-12-06T15:41:58.966Z,35.97
2022-12-06T15:52:00.861Z,39.97
2022-12-06T16:02:02.768Z,39.72
2022-12-06T16:12:04.914Z,28.55
2022-12-06T16:22:08.237Z,27.27
2022-12-06T16:32:10.096Z,28.58
2022-12-06T16:42:12.713Z,24.35
2022-12-06T16:52:15.305Z,18.70
2022-12-06T17:02:26.843Z,16.55
2022-12-06T17:12:28.863Z,28.08
2022-12-06T17:22:30.675Z,20.23
2022-12-06T17:32:32.590Z,28.77
2022-12-06T17:42:34.466Z,18.63
2022-12-06T17:52:36.340Z,17.92
2022-12-06T18:02:38.165Z,18.13
2022-12-06T18:12:40.063Z,15.27
2022-12-06T18:22:43.568Z,12.23
2022-12-06T18:32:45.417Z,23.25
2022-12-06T18:42:47.299Z,15.77
2022-12-06T18:52:49.169Z,17.25
2022-12-06T19:02:51.096Z,24.63
2022-12-06T19:12:53.081Z,39.47
2022-12-06T19:22:54.942Z,22.52
2022-12-06T19:32:56.781Z,37.47
2022-12-06T19:42:58.581Z,21.52
2022-12-06T19:53:00.342Z,20.98
2022-12-06T20:03:02.213Z,36.90
2022-12-06T20:13:04.407Z,47.22
2022-12-06T20:23:10.487Z,55.65
2022-12-06T20:33:13.020Z,50.65
2022-12-06T20:43:15.264Z,46.38
2022-12-06T20:53:17.125Z,61.30
2022-12-06T21:03:19.088Z,32.78
2022-12-06T21:13:21.346Z,28.52
2022-12-06T21:23:23.462Z,55.63
2022-12-06T21:33:26.326Z,38.08
2022-12-06T21:43:28.247Z,36.35
2022-12-06T21:53:30.300Z,40.72
2022-12-06T22:03:32.162Z,37.20
2022-12-06T22:13:34.279Z,36.10
2022-12-06T22:23:36.189Z,36.25
2022-12-06T22:33:38.259Z,30.58
2022-12-06T22:43:40.168Z,31.10
2022-12-06T22:53:44.634Z,31.63
2022-12-06T23:03:48.477Z,20.52
2022-12-06T23:13:50.519Z,27.23
2022-12-06T23:23:58.276Z,15.77
2022-12-06T23:34:06.812Z,21.80
2022-12-06T23:44:10.843Z,35.75
2022-12-06T23:54:15.229Z,24.58
